Upernavik

KL  EN  DA
ASIAQ
Weather Now GREENLAND SURVEY
Updated [WGT/WGST] Temperature [°C] Wind [m/s] Air pressure [hPa] Relative humidity [%] Precipitation [mm]
Present Wind chill Speed Max
21.01 20:00n/an/a5,3 ⇒7,3982n/an/a
21.01 19:00-17,0-27,46,5 ⇗9,1981870,0
21.01 18:00-16,2-29,512,3 ⇗15,1981790,0
21.01 17:00-15,6-28,511,9 ⇗15,6980810,1
21.01 16:00-15,6-28,812,6 ⇗15,1980850,0
21.01 15:00-15,4-26,27,9 ⇗12,1979900,3
21.01 14:00-15,5-21,22,4 ⇒4,2979900,0
21.01 13:00-15,5-22,53,3 ⇒4,2978910,1
21.01 12:00-15,0-21,83,2 ⇗4,1978910,1
21.01 11:00-15,20,01,3 ⇘1,9977900,1
21.01 10:00-15,6-19,21,4 ⇘1,9976900,0
21.01 09:00-15,8-22,43,0 ⇒3,9976900,0
21.01 08:00-16,0-21,12,0 ⇗3,0976900,0
21.01 07:00-16,7-24,13,4 ⇗4,7975890,0
21.01 06:00-17,5-27,35,6 ⇗7,2974890,0
21.01 05:00-17,9-28,56,4 ⇗7,7974880,0
21.01 04:00-17,7-29,48,1 ⇗10,4973890,0
21.01 03:00-17,3-29,48,9 ⇗11,1972890,0
21.01 02:00-15,8-28,310,7 ⇗13,8970900,0
21.01 01:00-15,7-27,39,0 ⇗11,1970900,0
21.01 00:00-15,2-25,67,3 ⇗9,8970910,0
20.01 23:00-15,0-23,95,4 ⇗8,4971910,0
20.01 22:00-14,9-23,44,9 ⇒7,1971910,0
20.01 21:00-14,1-24,17,1 ⇗9,7971920,0
20.01 20:00-13,8-25,29,7 ⇗13,0971920,0
Position: (72.783333333,-56.133333333)

[Back]